Погода Новое Ободовона 2 недели

Тверская область, Россия

25 мая-07 июня
  • 25мая
    Сегодня
    +10°
    +25°
    Ясно и безоблачно
    ВремяПогодаТемператураВлажностьДавлениеВетер, м/сВероятность осадков
    00:00Ясно и безоблачно+11°C57 %756 мм2.8 м/с2 %
    03:00Ясно и безоблачно+8°C58 %757 мм3.0 м/с2 %
    06:00Ясно и безоблачно+10°C60 %756 мм2.8 м/с2 %
    09:00Ясно и безоблачно+19°C47 %756 мм2.7 м/с2 %
    12:00Ясно и безоблачно+23°C33 %755 мм3.2 м/с2 %
    15:00Ясно и безоблачно+24°C32 %754 мм3.4 м/с2 %
    18:00Ясно и безоблачно+24°C36 %753 мм3.4 м/с2 %
    21:00Ясно и безоблачно+18°C57 %753 мм2.3 м/с2 %
  • 26мая
    Воскресенье
    +7°
    +23°
    Облачно с прояснениями
    ВремяПогодаТемператураВлажностьДавлениеВетер, м/сВероятность осадков
    00:00Ясно и безоблачно+12°C63 %752 мм3.0 м/с2 %
    03:00Ясно и безоблачно+11°C72 %752 мм2.6 м/с2 %
    06:00Практически безоблачно+12°C79 %753 мм1.9 м/с2 %
    09:00Облачно с прояснениями+20°C68 %753 мм1.4 м/с16 %
    12:00Небольшая облачность, ливень+19°C79 %754 мм0.9 м/с57 %
    15:00Облачно с прояснениями+21°C59 %754 мм2.9 м/с46 %
    18:00Облачно с прояснениями+22°C45 %753 мм2.2 м/с27 %
    21:00Ясно и безоблачно+17°C53 %754 мм3.1 м/с8 %
  • 27мая
    Понедельник
    +8°
    +23°
    Ясно и безоблачно
    ВремяПогодаТемператураВлажностьДавлениеВетер, м/сВероятность осадков
    00:00Ясно и безоблачно+11°C57 %755 мм3.0 м/с2 %
    03:00Ясно и безоблачно+8°C60 %756 мм2.4 м/с2 %
    06:00Практически безоблачно+9°C66 %756 мм2.2 м/с2 %
    09:00Ясно и безоблачно+18°C52 %756 мм1.9 м/с2 %
    12:00Ясно и безоблачно+22°C38 %756 мм2.3 м/с2 %
    15:00Ясно и безоблачно+23°C35 %755 мм1.9 м/с2 %
    18:00Ясно и безоблачно+23°C37 %754 мм1.4 м/с2 %
    21:00Ясно и безоблачно+18°C64 %754 мм1.5 м/с2 %
  • 28мая
    Вторник
    +10°
    +26°
    Ясно и безоблачно
    ВремяПогодаТемператураВлажностьДавлениеВетер, м/сВероятность осадков
    00:00Ясно и безоблачно+13°C66 %753 мм2.5 м/с2 %
    03:00Ясно и безоблачно+10°C76 %753 мм1.9 м/с2 %
    06:00Ясно и безоблачно+11°C78 %753 мм1.8 м/с2 %
    09:00Ясно и безоблачно+21°C56 %753 мм0.9 м/с2 %
    12:00Ясно и безоблачно+24°C39 %753 мм0.4 м/с11 %
    15:00Ясно и безоблачно+25°C37 %752 мм0.6 м/с17 %
    18:00Ясно и безоблачно+25°C36 %750 мм1.2 м/с17 %
    21:00Ясно и безоблачно+19°C64 %750 мм1.6 м/с3 %
  • 29мая
    Среда
    +11°
    +27°
    Практически безоблачно
    ВремяПогодаТемператураВлажностьДавлениеВетер, м/сВероятность осадков
    00:00Ясно и безоблачно+14°C67 %749 мм2.0 м/с2 %
    03:00Ясно и безоблачно+12°C77 %749 мм1.8 м/с2 %
    06:00Ясно и безоблачно+13°C83 %748 мм1.4 м/с6 %
    09:00Ясно и безоблачно+22°C62 %749 мм0.5 м/с3 %
    12:00Практически безоблачно+25°C38 %748 мм0.8 м/с26 %
    15:00Практически безоблачно+26°C38 %747 мм0.2 м/с28 %
    18:00Облачно с прояснениями+25°C46 %747 мм2.4 м/с34 %
    21:00Облачно с прояснениями+20°C71 %747 мм1.5 м/с17 %
Мы используем cookies
Соглашаюсь